Mudah untuk digunakan

vPilot, dan Squawkbox

VATSIM memiliki 3 pilot client yang berbeda. Semuanya memberikan kemudahan yang sama bagi pengguna untuk online ke dalam simulasi VATSIM. Semuanya memiliki panduan yang lengkap untuk membantu Anda menggunakan aplikasi ini.

Radar client yang seperti aslinya

EuroScope & VRC

VATSIM memiliki radar client yang sangat advanced karena mensimulasikan secara nyata bagaimana seorang ATC didunia nyata. Walaupun dikatakan advanced, kedua radar client ini sangat mudah untuk digunakan. Dan hal menarik lainnya, VATSIM menggunakan ATIS dalam bentuk suara!

Dengan VATSIM, Anda dapat belajar lebih banyak tentang aviasi.
Anda juga dapat berdiskusi dengan pencinta aviasi lainnya.

Pengalaman Yang Tidak Terlupakan

Aktifitas Terkini

Tidak ada ATC yang online!

Pilot

Callsign Nama Rute
AWQ263Cody Newman CYYZ (1442820)WIII-WSSS
UAL1810Larobb Lee (1120999)RJAA-WIII

*Informasi ini bisa saja tidak mutakhir.

METAR

Nama Bandara - Lokasi (ICAO) METAR
Sultan Hasanuddin - Makassar (WAAA)METAR WAAA 210100Z VRB02KT 9999 FEW020 29/24 Q1012|NOSIG=
I Gusti Ngurah Rai - Denpasar (WADD)METAR WADD 210100Z 27008KT 9999 SCT017 29/27 Q1012|NOSIG=
Juanda - Surabaya (WARR)METAR WARR 210100Z 28008KT 8000 FEW020 27/25 Q1012|NOSIG=
Soekarno Hatta - Jakarta (WIII)METAR WIII 210100Z VRB02KT 5000 HZ BKN018 27/24 Q1013|NOSIG=
Halim Perdana Kusuma - Jakarta (WIHH)METAR WIHH 202300Z 23005KT 3000 -RA SCT015 25/25 Q1012|NOSIG=
Kualanamu International Airport - Deli Serdang (WIMM)METAR WIMM 210100Z 23005KT 2500 BR SCT017 25/24 Q1013|NOSIG=

*METAR didapatkan dari BMKG. Informasi ini bisa saja tidak mutakhir.

VATSIM Indonesia vACC VATSIM South East Asia VATSIM Asia